Time,TemperatureF,DewpointF,PressureIn,WindDirection,WindDirectionDegrees,WindSpeedMPH,WindSpeedGustMPH,Humidity,HourlyPrecipIn,Conditions,Clouds,dailyrainin,SoftwareType,DateUTC
2013-06-05 00:01:00,32.0,32.0,-100.00,East,82,1.0,4.0,100,0.00,,,-99.99,,2013-06-05 06:01:00,
2013-06-05 00:11:00,32.0,32.0,-100.00,East,90,0.0,5.0,100,-99.99,,,-99.99,,2013-06-05 06:11:00,
2013-06-05 00:22:00,-999.0,-99.9,-100.00,East,85,1.0,4.0,-999,-99.99,,,-99.99,,2013-06-05 06:22:00,
2013-06-05 00:32:00,32.0,32.0,-100.00,ENE,68,0.0,0.0,100,0.00,,,-99.99,,2013-06-05 06:32:00,
2013-06-05 00:42:00,32.0,32.0,-100.00,North,11,0.0,0.0,100,0.00,,,-99.99,,2013-06-05 06:42:00,
2013-06-05 00:52:00,33.0,33.0,-100.00,West,265,0.0,1.0,100,0.00,,,-99.99,,2013-06-05 06:52:00,
2013-06-05 01:01:00,33.0,33.0,-100.00,WSW,254,0.0,0.0,100,0.00,,,-99.99,,2013-06-05 07:01:00,
2013-06-05 01:11:00,33.0,33.0,-100.00,WSW,253,0.0,2.0,100,0.00,,,-99.99,,2013-06-05 07:11:00,
2013-06-05 01:21:00,32.0,32.0,-100.00,West,270,0.0,3.0,100,0.00,,,-99.99,,2013-06-05 07:21:00,
2013-06-05 01:31:00,32.0,32.0,-100.00,WSW,256,1.0,4.0,100,0.00,,,-99.99,,2013-06-05 07:31:00,
2013-06-05 01:52:00,32.0,32.0,-100.00,WSW,254,4.0,6.0,100,0.00,,,-99.99,,2013-06-05 07:52:00,
2013-06-05 02:02:00,32.0,32.0,-100.00,West,265,2.0,6.0,100,0.00,,,-99.99,,2013-06-05 08:02:00,
2013-06-05 02:11:00,32.0,32.0,-100.00,WSW,244,6.0,8.0,100,0.00,,,-99.99,,2013-06-05 08:11:00,
2013-06-05 02:21:00,32.0,32.0,-100.00,WSW,237,7.0,11.0,100,0.00,,,-99.99,,2013-06-05 08:21:00,
2013-06-05 02:31:00,32.0,32.0,-100.00,WSW,246,8.0,12.0,100,0.00,,,-99.99,,2013-06-05 08:31:00,
2013-06-05 02:42:00,32.0,32.0,-100.00,WSW,246,7.0,11.0,100,0.00,,,-99.99,,2013-06-05 08:42:00,
2013-06-05 02:52:00,31.0,31.0,-100.00,WSW,251,7.0,11.0,100,0.00,,,-99.99,,2013-06-05 08:52:00,
2013-06-05 03:01:00,31.0,31.0,-100.00,WSW,250,9.0,14.0,100,0.00,,,-99.99,,2013-06-05 09:01:00,
2013-06-05 03:11:00,31.0,31.0,-100.00,WSW,253,9.0,13.0,100,0.00,,,-99.99,,2013-06-05 09:11:00,
2013-06-05 03:21:00,31.0,31.0,-100.00,West,261,9.0,12.0,100,0.00,,,-99.99,,2013-06-05 09:21:00,
2013-06-05 03:32:00,31.0,31.0,-100.00,WSW,258,9.0,13.0,100,0.00,,,-99.99,,2013-06-05 09:32:00,
2013-06-05 03:52:00,31.0,31.0,-100.00,WSW,246,12.0,15.0,100,0.00,,,-99.99,,2013-06-05 09:52:00,
2013-06-05 04:02:00,31.0,31.0,-100.00,WSW,248,12.0,16.0,100,-99.99,,,-99.99,,2013-06-05 10:02:00,
2013-06-05 04:12:00,31.0,31.0,-100.00,WSW,254,10.0,14.0,100,0.00,,,-99.99,,2013-06-05 10:12:00,
2013-06-05 04:33:00,30.0,30.0,-100.00,West,263,8.0,13.0,100,0.00,,,-99.99,,2013-06-05 10:33:00,
2013-06-05 04:42:00,30.0,30.0,-100.00,West,263,8.0,11.0,100,0.00,,,-99.99,,2013-06-05 10:42:00,
2013-06-05 04:52:00,30.0,30.0,-100.00,West,267,7.0,11.0,100,0.00,,,-99.99,,2013-06-05 10:52:00,
2013-06-05 05:11:00,30.0,30.0,-100.00,West,268,7.0,11.0,100,0.00,,,-99.99,,2013-06-05 11:11:00,
2013-06-05 05:21:00,30.0,30.0,-100.00,West,260,9.0,13.0,100,0.00,,,-99.99,,2013-06-05 11:21:00,
2013-06-05 05:32:00,30.0,30.0,-100.00,West,263,8.0,12.0,100,0.00,,,-99.99,,2013-06-05 11:32:00,
2013-06-05 05:51:00,29.0,29.0,-100.00,West,264,8.0,11.0,100,0.00,,,-99.99,,2013-06-05 11:51:00,
2013-06-05 06:01:00,30.0,30.0,-100.00,West,264,9.0,12.0,100,0.00,,,-99.99,,2013-06-05 12:01:00,
2013-06-05 06:11:00,30.0,30.0,-100.00,West,264,9.0,12.0,100,0.00,,,-99.99,,2013-06-05 12:11:00,
2013-06-05 06:21:00,30.0,30.0,-100.00,West,264,9.0,13.0,100,0.00,,,-99.99,,2013-06-05 12:21:00,
2013-06-05 06:32:00,30.0,30.0,-100.00,West,267,10.0,14.0,100,0.00,,,-99.99,,2013-06-05 12:32:00,
2013-06-05 06:43:00,31.0,31.0,-100.00,West,265,9.0,14.0,100,0.00,,,-99.99,,2013-06-05 12:43:00,
2013-06-05 06:52:00,31.0,31.0,-100.00,West,267,11.0,16.0,100,0.00,,,-99.99,,2013-06-05 12:52:00,
2013-06-05 07:11:00,31.0,31.0,-100.00,West,265,11.0,14.0,100,0.00,,,-99.99,,2013-06-05 13:11:00,
2013-06-05 07:21:00,31.0,31.0,-100.00,West,264,9.0,12.0,100,0.00,,,-99.99,,2013-06-05 13:21:00,
2013-06-05 07:32:00,31.0,31.0,-100.00,West,265,9.0,12.0,100,0.00,,,-99.99,,2013-06-05 13:32:00,
2013-06-05 07:42:00,32.0,31.0,-100.00,West,264,10.0,14.0,100,0.00,,,-99.99,,2013-06-05 13:42:00,
2013-06-05 07:52:00,31.0,31.0,-100.00,West,268,8.0,11.0,100,0.00,,,-99.99,,2013-06-05 13:52:00,
2013-06-05 08:01:00,31.0,31.0,-100.00,West,265,9.0,12.0,100,0.00,,,-99.99,,2013-06-05 14:01:00,
2013-06-05 08:11:00,32.0,32.0,-100.00,West,263,9.0,13.0,100,0.00,,,-99.99,,2013-06-05 14:11:00,
2013-06-05 08:22:00,32.0,32.0,-100.00,West,264,7.0,12.0,100,-99.99,,,-99.99,,2013-06-05 14:22:00,
2013-06-05 08:31:00,32.0,32.0,-100.00,West,263,9.0,13.0,100,-99.99,,,-99.99,,2013-06-05 14:31:00,
2013-06-05 08:42:00,32.0,32.0,-100.00,West,264,8.0,12.0,99,0.00,,,-99.99,,2013-06-05 14:42:00,
2013-06-05 08:52:00,33.0,33.0,-100.00,West,263,7.0,13.0,99,0.00,,,-99.99,,2013-06-05 14:52:00,
2013-06-05 09:01:00,33.0,33.0,-100.00,West,267,6.0,10.0,99,0.00,,,-99.99,,2013-06-05 15:01:00,
2013-06-05 09:11:00,35.0,34.0,-100.00,West,267,6.0,11.0,98,0.00,,,-99.99,,2013-06-05 15:11:00,
2013-06-05 09:23:00,-999.0,-99.9,-100.00,WNW,289,5.0,9.0,-999,-99.99,,,-99.99,,2013-06-05 15:23:00,
2013-06-05 09:33:00,35.0,34.0,-100.00,WNW,291,5.0,9.0,96,0.00,,,-99.99,,2013-06-05 15:33:00,
2013-06-05 09:42:00,38.0,37.0,-100.00,WNW,288,2.0,6.0,94,0.00,,,-99.99,,2013-06-05 15:42:00,
2013-06-05 09:53:00,38.0,36.0,-100.00,West,281,2.0,3.0,93,0.00,,,-99.99,,2013-06-05 15:53:00,
2013-06-05 10:03:00,40.0,36.0,-100.00,West,278,4.0,7.0,86,0.00,,,-99.99,,2013-06-05 16:03:00,
2013-06-05 10:13:00,-999.0,-99.9,-100.00,WSW,258,4.0,7.0,-999,-99.99,,,-99.99,,2013-06-05 16:13:00,
2013-06-05 10:22:00,40.0,36.0,-100.00,West,280,2.0,5.0,83,0.00,,,-99.99,,2013-06-05 16:22:00,
2013-06-05 10:31:00,41.0,34.0,-100.00,West,274,2.0,7.0,73,0.00,,,-99.99,,2013-06-05 16:31:00,
2013-06-05 10:42:00,41.0,33.0,-100.00,WSW,248,3.0,6.0,73,0.00,,,-99.99,,2013-06-05 16:42:00,
2013-06-05 10:53:00,42.0,33.0,-100.00,West,268,2.0,6.0,70,0.00,,,-99.99,,2013-06-05 16:53:00,
2013-06-05 11:03:00,-999.0,-99.9,-100.00,SSW,205,2.0,7.0,-999,-99.99,,,-99.99,,2013-06-05 17:03:00,
2013-06-05 11:12:00,44.0,38.0,-100.00,East,88,6.0,12.0,80,0.00,,,-99.99,,2013-06-05 17:12:00,
2013-06-05 11:22:00,43.0,38.0,-100.00,ESE,103,9.0,15.0,85,0.00,,,-99.99,,2013-06-05 17:22:00,
2013-06-05 11:33:00,-999.0,-99.9,-100.00,East,80,11.0,16.0,-999,-99.99,,,-99.99,,2013-06-05 17:33:00,
2013-06-05 11:43:00,-999.0,-99.9,-100.00,East,86,12.0,19.0,-999,-99.99,,,-99.99,,2013-06-05 17:43:00,
2013-06-05 11:52:00,43.0,37.0,-100.00,East,88,13.0,19.0,80,0.00,,,-99.99,,2013-06-05 17:52:00,
2013-06-05 12:02:00,43.0,40.0,-100.00,East,92,13.0,18.0,91,0.00,,,-99.99,,2013-06-05 18:02:00,
2013-06-05 12:12:00,43.0,39.0,-100.00,East,89,12.0,17.0,85,0.00,,,-99.99,,2013-06-05 18:12:00,
2013-06-05 12:23:00,-999.0,-99.9,-100.00,East,88,12.0,17.0,-999,-99.99,,,-99.99,,2013-06-05 18:23:00,
2013-06-05 12:32:00,43.0,37.0,-100.00,East,85,13.0,17.0,80,0.00,,,-99.99,,2013-06-05 18:32:00,
2013-06-05 12:42:00,44.0,37.0,-100.00,East,89,13.0,17.0,78,0.00,,,-99.99,,2013-06-05 18:42:00,
2013-06-05 12:52:00,44.0,39.0,-100.00,East,85,13.0,17.0,80,0.00,,,-99.99,,2013-06-05 18:52:00,
2013-06-05 13:02:00,44.0,38.0,-100.00,East,79,13.0,17.0,79,0.00,,,-99.99,,2013-06-05 19:02:00,
2013-06-05 13:11:00,44.0,38.0,-100.00,East,83,15.0,20.0,78,0.00,,,-99.99,,2013-06-05 19:11:00,
2013-06-05 13:23:00,-999.0,-99.9,-100.00,East,88,15.0,20.0,-999,-99.99,,,-99.99,,2013-06-05 19:23:00,
2013-06-05 13:32:00,46.0,38.0,-100.00,East,83,16.0,21.0,75,0.00,,,-99.99,,2013-06-05 19:32:00,
2013-06-05 13:42:00,-999.0,-99.9,-100.00,East,93,17.0,23.0,-999,-99.99,,,-99.99,,2013-06-05 19:42:00,
2013-06-05 13:52:00,45.0,37.0,-100.00,East,82,17.0,22.0,73,0.00,,,-99.99,,2013-06-05 19:52:00,
2013-06-05 14:02:00,45.0,38.0,-100.00,East,83,17.0,23.0,75,0.00,,,-99.99,,2013-06-05 20:02:00,
2013-06-05 14:11:00,46.0,37.0,-100.00,East,88,16.0,21.0,72,0.00,,,-99.99,,2013-06-05 20:11:00,
2013-06-05 14:23:00,-999.0,-99.9,-100.00,East,80,16.0,22.0,-999,-99.99,,,-99.99,,2013-06-05 20:23:00,
2013-06-05 14:31:00,47.0,37.0,-100.00,East,89,15.0,21.0,69,0.00,,,-99.99,,2013-06-05 20:31:00,
2013-06-05 14:42:00,47.0,37.0,-100.00,East,85,14.0,21.0,69,0.00,,,-99.99,,2013-06-05 20:42:00,
2013-06-05 14:52:00,47.0,36.0,-100.00,East,83,13.0,17.0,66,0.00,,,-99.99,,2013-06-05 20:52:00,
2013-06-05 15:01:00,49.0,38.0,-100.00,East,86,14.0,19.0,66,0.00,,,-99.99,,2013-06-05 21:01:00,
2013-06-05 15:11:00,48.0,37.0,-100.00,East,85,14.0,17.0,65,0.00,,,-99.99,,2013-06-05 21:11:00,
2013-06-05 15:33:00,49.0,38.0,-100.00,East,82,14.0,20.0,64,0.00,,,-99.99,,2013-06-05 21:33:00,
2013-06-05 15:43:00,-999.0,-99.9,-100.00,East,82,14.0,19.0,-999,-99.99,,,-99.99,,2013-06-05 21:43:00,
2013-06-05 15:53:00,49.0,36.0,-100.00,East,86,14.0,19.0,59,0.00,,,-99.99,,2013-06-05 21:53:00,
2013-06-05 16:02:00,49.0,36.0,-100.00,East,89,15.0,20.0,62,0.00,,,-99.99,,2013-06-05 22:02:00,
2013-06-05 16:13:00,-999.0,-99.9,-100.00,ENE,78,16.0,21.0,-999,-99.99,,,-99.99,,2013-06-05 22:13:00,
2013-06-05 16:22:00,49.0,36.0,-100.00,East,83,16.0,20.0,60,0.00,,,-99.99,,2013-06-05 22:22:00,
2013-06-05 16:33:00,-999.0,-99.9,-100.00,East,83,15.0,19.0,-999,-99.99,,,-99.99,,2013-06-05 22:33:00,
2013-06-05 16:42:00,49.0,36.0,-100.00,East,92,16.0,19.0,59,0.00,,,-99.99,,2013-06-05 22:42:00,
2013-06-05 16:53:00,-999.0,-99.9,-100.00,East,89,17.0,21.0,-999,-99.99,,,-99.99,,2013-06-05 22:53:00,
2013-06-05 17:02:00,50.0,36.0,-100.00,East,80,17.0,23.0,57,0.00,,,-99.99,,2013-06-05 23:02:00,
2013-06-05 17:12:00,49.0,36.0,-100.00,East,86,16.0,23.0,58,0.00,,,-99.99,,2013-06-05 23:12:00,
2013-06-05 17:21:00,49.0,35.0,-100.00,East,80,17.0,23.0,58,0.00,,,-99.99,,2013-06-05 23:21:00,
2013-06-05 17:32:00,50.0,36.0,-100.00,East,83,16.0,21.0,59,0.00,,,-99.99,,2013-06-05 23:32:00,
2013-06-05 17:41:00,51.0,36.0,-100.00,East,85,15.0,20.0,57,0.00,,,-99.99,,2013-06-05 23:41:00,
2013-06-05 17:52:00,50.0,36.0,-100.00,East,82,16.0,21.0,57,0.00,,,-99.99,,2013-06-05 23:52:00,
2013-06-05 18:01:00,51.0,36.0,-100.00,ENE,78,15.0,19.0,56,0.00,,,-99.99,,2013-06-06 00:01:00,
2013-06-05 18:11:00,51.0,36.0,-100.00,East,83,16.0,20.0,57,0.00,,,-99.99,,2013-06-06 00:11:00,
2013-06-05 18:21:00,50.0,35.0,-100.00,ENE,66,15.0,19.0,56,0.00,,,-99.99,,2013-06-06 00:21:00,
2013-06-05 18:32:00,50.0,35.0,-100.00,ENE,72,14.0,20.0,57,0.00,,,-99.99,,2013-06-06 00:32:00,
2013-06-05 18:42:00,49.0,35.0,-100.00,ENE,59,16.0,21.0,57,0.00,,,-99.99,,2013-06-06 00:42:00,
2013-06-05 18:51:00,49.0,35.0,-100.00,NE,56,16.0,21.0,57,0.00,,,-99.99,,2013-06-06 00:51:00,
2013-06-05 19:02:00,49.0,34.0,-100.00,ENE,59,17.0,21.0,56,0.00,,,-99.99,,2013-06-06 01:02:00,
2013-06-05 19:21:00,48.0,34.0,-100.00,ENE,58,16.0,21.0,58,0.00,,,-99.99,,2013-06-06 01:21:00,
2013-06-05 19:32:00,48.0,34.0,-100.00,NE,55,17.0,21.0,58,0.00,,,-99.99,,2013-06-06 01:32:00,
2013-06-05 19:42:00,47.0,34.0,-100.00,ENE,58,16.0,19.0,58,0.00,,,-99.99,,2013-06-06 01:42:00,
2013-06-05 19:52:00,47.0,34.0,-100.00,ENE,59,16.0,19.0,59,0.00,,,-99.99,,2013-06-06 01:52:00,
2013-06-05 20:01:00,47.0,33.0,-100.00,NE,56,15.0,17.0,59,0.00,,,-99.99,,2013-06-06 02:01:00,
2013-06-05 20:11:00,46.0,33.0,-100.00,ENE,62,14.0,18.0,61,0.00,,,-99.99,,2013-06-06 02:11:00,
2013-06-05 20:21:00,46.0,33.0,-100.00,ENE,58,14.0,16.0,61,0.00,,,-99.99,,2013-06-06 02:21:00,
2013-06-05 20:32:00,46.0,33.0,-100.00,ENE,65,13.0,16.0,62,0.00,,,-99.99,,2013-06-06 02:32:00,
2013-06-05 20:42:00,46.0,33.0,-100.00,ENE,65,13.0,16.0,62,0.00,,,-99.99,,2013-06-06 02:42:00,
2013-06-05 20:51:00,46.0,33.0,-100.00,ENE,65,13.0,16.0,62,0.00,,,-99.99,,2013-06-06 02:51:00,
2013-06-05 21:01:00,45.0,33.0,-100.00,NE,55,12.0,14.0,60,0.00,,,-99.99,,2013-06-06 03:01:00,
2013-06-05 21:22:00,46.0,32.0,-100.00,NE,54,10.0,14.0,58,0.00,,,-99.99,,2013-06-06 03:22:00,
2013-06-05 21:33:00,45.0,32.0,-100.00,ENE,65,9.0,13.0,60,0.00,,,-99.99,,2013-06-06 03:33:00,
2013-06-05 21:43:00,46.0,32.0,-100.00,ENE,61,9.0,11.0,59,0.00,,,-99.99,,2013-06-06 03:43:00,
2013-06-05 21:52:00,45.0,32.0,-100.00,ENE,62,7.0,9.0,60,0.00,,,-99.99,,2013-06-06 03:52:00,
2013-06-05 22:02:00,46.0,32.0,-100.00,ENE,65,6.0,7.0,57,0.00,,,-99.99,,2013-06-06 04:02:00,
2013-06-05 22:13:00,46.0,32.0,-100.00,ENE,71,4.0,6.0,56,0.00,,,-99.99,,2013-06-06 04:13:00,
2013-06-05 22:22:00,46.0,32.0,-100.00,East,95,3.0,4.0,56,0.00,,,-99.99,,2013-06-06 04:22:00,
2013-06-05 22:33:00,47.0,30.0,-100.00,ESE,109,2.0,3.0,53,0.00,,,-99.99,,2013-06-06 04:33:00,
2013-06-05 22:42:00,46.0,32.0,-100.00,SSE,161,2.0,4.0,57,0.00,,,-99.99,,2013-06-06 04:42:00,
2013-06-05 22:52:00,46.0,32.0,-100.00,SW,232,3.0,5.0,56,0.00,,,-99.99,,2013-06-06 04:52:00,
2013-06-05 23:02:00,46.0,32.0,-100.00,SW,236,4.0,6.0,58,0.00,,,-99.99,,2013-06-06 05:02:00,
2013-06-05 23:12:00,46.0,32.0,-100.00,WSW,251,4.0,7.0,58,0.00,,,-99.99,,2013-06-06 05:12:00,
2013-06-05 23:22:00,46.0,33.0,-100.00,WSW,251,4.0,6.0,60,0.00,,,-99.99,,2013-06-06 05:22:00,
2013-06-05 23:31:00,45.0,33.0,-100.00,West,263,3.0,6.0,61,0.00,,,-99.99,,2013-06-06 05:31:00,
2013-06-05 23:41:00,45.0,33.0,-100.00,West,261,4.0,7.0,61,0.00,,,-99.99,,2013-06-06 05:41:00,
2013-06-05 23:52:00,45.0,32.0,-100.00,WSW,253,7.0,9.0,61,0.00,,,-99.99,,2013-06-06 05:52:00,